Departamento de Arequipa, Perú

3:20 AM PET en Septiembre 23, 2014 (GMT -0500)
Rodriguez Ballon | Change Station
CLOSE
Current Station
Aeropuerto
Location: Arequipa,
Altura: 8330 ft
Estaciones meteorológicas cercanas

Alt 8330 ft 16.34 °S, 71.58 °W | Updated 20 minutes ago

Scattered Clouds
Nubes dispersas
50 ° F
Sensación térmica 50 ° F
N
6
Viento Variable Viento desde NNO

Hoy
Alta -- | Baja -- ° F
--% Posibilidad de precipitaciones
Ayer
Alta -- | Baja -- ° F
Precip. -- pul
5:35 AM 5:42 PM
Creciente menguante, 1% visible
Presión 30.33 pul
Visibilidad 6.2 Millas
Nubes Nubes dispersas 10000 ft
Punto de rocío 18 ° F
Humedad 28%
Precipitaciones 0.00 pul
Espesor de la nieve No disponible.
UV 0 de una escala de 12
Polen No disponible.
Calidad del aire No disponible.
Flu Activity No disponible.
METAR SPQU 230800Z 34005KT 9999 SCT100 10/M08 Q1027 RMK PP000

More Conditions Fewer Conditions

Presión 30.33 pul
Visibilidad 6.2 Millas
Nubes Nubes dispersas 10000 ft
Punto de rocío 18 ° F
Humedad 28%
Precipitaciones 0.00 pul
Espesor de la nieve No disponible.
UV 0 de una escala de 12
Polen No disponible.
Calidad del aire No disponible.
Flu Activity No disponible.
METAR SPQU 230800Z 34005KT 9999 SCT100 10/M08 Q1027 RMK PP000

More Conditions Fewer Conditions

10-Day Weather Forecast

Almanac

Astronomía

Sep. 23, 2014 Salida Puesta
Hora real 5:35 AM PET 5:42 PM PET
Crepúsculo civil 5:13 AM PET 6:03 PM PET
Crepúsculo náutico 4:48 AM PET 6:28 PM PET
Crepúsculo astronómico 4:23 AM PET 6:54 PM PET
Luna 5:02 AM PET 5:22 PM PET
Horas de luz 12h 50m
Horas de luz
12h 07m
Tomorrow will be 0m 55s longer.
Creciente menguante, 1% of the Moon is Illuminated
Hoy
Creciente menguante
Sep 24
Nueva
Oct 1
Cuarto creciente
Oct 8
Luna llena
Oct 15
Cuarto menguante

Extremos de ayer

Máximos del país Bajas del país

Community

WunderPhotos

Upload Photos

1,755,632 ¡fotos cargadas!

Nearby

Calidad del aire

Not available.

Grosos de nieve

Not available.

Actividad de terremotos

Ciudad Distance Mag. Tiempo y dato
No hay informes recientes de la actividad sísmica.
Magnitud mínima muestra es 2,5.

Temperaturas de aguas costeras

Lugar Temperatura
Sin partes meteorológicos de las estaciones

Estaciones meteorológicas cercanas